createdAt,value
2019-06-01T00:00:21.146Z,100591.38
2019-06-01T00:02:55.903Z,100594.56
2019-06-01T00:05:21.080Z,100589.38
2019-06-01T00:07:50.163Z,100589.89
2019-06-01T00:10:19.240Z,100592.98
2019-06-01T00:12:49.462Z,100592.63
2019-06-01T00:15:18.585Z,100594.02
2019-06-01T00:17:47.969Z,100594.99
2019-06-01T00:20:17.049Z,100587.58
2019-06-01T00:22:47.416Z,100588.04
2019-06-01T00:25:16.549Z,100586.80
2019-06-01T00:27:46.708Z,100586.84
2019-06-01T00:30:26.685Z,100581.59
2019-06-01T00:32:47.296Z,100577.21
2019-06-01T00:35:16.359Z,100583.89
2019-06-01T00:37:45.672Z,100579.59
2019-06-01T00:40:14.667Z,100577.45
2019-06-01T00:42:44.099Z,100573.97
2019-06-01T00:45:13.180Z,100578.89
2019-06-01T00:47:42.683Z,100579.42
2019-06-01T00:50:11.808Z,100583.06
2019-06-01T00:52:40.850Z,100583.12
2019-06-01T00:55:09.938Z,100581.85
2019-06-01T00:57:38.966Z,100585.00
2019-06-01T01:00:10.691Z,100582.82
2019-06-01T01:02:39.701Z,100586.85
2019-06-01T01:05:11.550Z,100584.73
2019-06-01T01:07:40.623Z,100587.46
2019-06-01T01:10:09.704Z,100586.66
2019-06-01T01:12:57.754Z,100594.22
2019-06-01T01:15:26.780Z,100594.30
2019-06-01T01:17:56.141Z,100602.70
2019-06-01T01:20:25.240Z,100600.06
2019-06-01T01:22:54.411Z,100597.05
2019-06-01T01:25:23.627Z,100601.96
2019-06-01T01:27:54.834Z,100598.04
2019-06-01T01:30:23.974Z,100595.45
2019-06-01T01:32:53.596Z,100588.47
2019-06-01T01:35:22.856Z,100598.64
2019-06-01T01:37:52.035Z,100594.25
2019-06-01T01:40:21.160Z,100597.81
2019-06-01T01:42:50.587Z,100596.52
2019-06-01T01:45:19.652Z,100593.03
2019-06-01T01:47:49.416Z,100590.88
2019-06-01T01:50:19.014Z,100588.75
2019-06-01T01:52:48.025Z,100588.36
2019-06-01T01:55:17.102Z,100586.63
2019-06-01T01:57:46.239Z,100588.88
2019-06-01T02:00:15.314Z,100581.41
2019-06-01T02:02:44.363Z,100584.99
2019-06-01T02:05:13.511Z,100581.10
2019-06-01T02:07:42.547Z,100576.73
2019-06-01T02:10:12.353Z,100588.25
2019-06-01T02:12:41.494Z,100586.98
2019-06-01T02:15:10.625Z,100587.03
2019-06-01T02:17:39.560Z,100584.43
2019-06-01T02:20:08.633Z,100580.98
2019-06-01T02:22:37.713Z,100579.31
2019-06-01T02:25:06.777Z,100584.23
2019-06-01T02:27:35.837Z,100580.77
2019-06-01T02:30:05.732Z,100578.70
2019-06-01T02:32:34.850Z,100572.16
2019-06-01T02:35:04.971Z,100577.88
2019-06-01T02:37:34.021Z,100569.56
2019-06-01T02:40:03.649Z,100567.82
2019-06-01T02:42:33.836Z,100566.10
2019-06-01T02:45:03.648Z,100563.52
2019-06-01T02:47:33.101Z,100567.48
2019-06-01T03:26:27.016Z,100564.83
2019-06-01T03:28:56.046Z,100567.91
2019-06-01T03:31:25.122Z,100574.51
2019-06-01T03:33:54.138Z,100576.30
2019-06-01T03:36:23.199Z,100578.94
2019-06-01T03:38:52.216Z,100580.26
2019-06-01T03:41:21.291Z,100581.59
2019-06-01T03:43:50.321Z,100578.52
2019-06-01T03:46:19.387Z,100578.52
2019-06-01T03:48:48.437Z,100573.67
2019-06-01T03:51:17.410Z,100572.33
2019-06-01T03:53:46.451Z,100570.52
2019-06-01T03:56:15.492Z,100566.97
2019-06-01T03:58:44.523Z,100568.22
2019-06-01T04:01:13.551Z,100567.72
2019-06-01T04:03:42.624Z,100566.32
2019-06-01T04:06:11.610Z,100565.87
2019-06-01T04:08:40.600Z,100569.77
2019-06-01T04:11:11.668Z,100566.63
2019-06-01T04:13:40.823Z,100568.77
2019-06-01T04:16:10.074Z,100571.76
2019-06-01T04:18:39.179Z,100580.02
2019-06-01T04:21:08.226Z,100576.02
2019-06-01T04:23:37.260Z,100586.93
2019-06-01T04:26:06.275Z,100575.83
2019-06-01T04:28:35.393Z,100578.38
2019-06-01T04:31:04.638Z,100575.66
2019-06-01T04:33:33.678Z,100576.47
2019-06-01T04:36:02.793Z,100573.80
2019-06-01T04:38:31.831Z,100575.45
2019-06-01T04:41:00.926Z,100582.32
2019-06-01T04:43:29.990Z,100587.47
2019-06-01T04:45:59.043Z,100589.06
2019-06-01T04:48:28.143Z,100599.42
2019-06-01T04:50:57.162Z,100601.45
2019-06-01T04:53:26.199Z,100591.97
2019-06-01T04:55:55.126Z,100588.77
2019-06-01T04:58:24.171Z,100591.81
2019-06-01T05:00:53.266Z,100593.00
2019-06-01T05:03:22.347Z,100586.16
2019-06-01T05:05:51.468Z,100584.31
2019-06-01T05:08:20.550Z,100591.17
2019-06-01T05:10:49.609Z,100591.86
2019-06-01T05:13:18.693Z,100588.25
2019-06-01T05:15:47.749Z,100588.95
2019-06-01T05:18:19.512Z,100585.19
2019-06-01T05:20:47.613Z,100576.50
2019-06-01T05:23:17.004Z,100579.03
2019-06-01T05:25:46.057Z,100576.25
2019-06-01T05:28:15.350Z,100573.83
2019-06-01T05:30:44.355Z,100575.78
2019-06-01T05:33:32.002Z,100572.03
2019-06-01T05:35:44.159Z,100562.80
2019-06-01T05:38:14.267Z,100561.98
2019-06-01T05:40:43.440Z,100563.45
2019-06-01T05:43:15.688Z,100559.46
2019-06-01T05:45:46.019Z,100560.73
2019-06-01T05:48:22.803Z,100563.88
2019-06-01T05:50:45.718Z,100565.80
2019-06-01T05:53:14.775Z,100558.88
2019-06-01T05:55:43.873Z,100558.33
2019-06-01T05:58:13.057Z,100556.56
2019-06-01T06:00:42.959Z,100552.17
2019-06-01T06:03:15.107Z,100556.09
2019-06-01T06:05:42.785Z,100546.52
2019-06-01T06:08:12.814Z,100551.89
2019-06-01T06:10:42.675Z,100556.48
2019-06-01T06:13:13.307Z,100557.33
2019-06-01T06:15:42.722Z,100557.38
2019-06-01T06:18:11.808Z,100551.02
2019-06-01T06:20:40.915Z,100553.80
2019-06-01T06:23:09.951Z,100546.34
2019-06-01T06:25:41.443Z,100557.73
2019-06-01T06:28:10.626Z,100547.02
2019-06-01T06:30:40.080Z,100543.44
2019-06-01T06:33:09.094Z,100540.84
2019-06-01T06:35:38.185Z,100538.39
2019-06-01T06:38:07.598Z,100533.75
2019-06-01T06:40:37.266Z,100530.12
2019-06-01T06:43:18.652Z,100536.05
2019-06-01T06:45:37.195Z,100540.42
2019-06-01T06:48:06.245Z,100550.78
2019-06-01T06:50:35.231Z,100544.27
2019-06-01T06:53:04.575Z,100540.81
2019-06-01T06:55:33.610Z,100554.56
2019-06-01T06:58:02.715Z,100549.18
2019-06-01T07:00:31.903Z,100548.98
2019-06-01T07:03:00.996Z,100555.21
2019-06-01T07:05:31.471Z,100561.11
2019-06-01T07:08:00.768Z,100557.49
2019-06-01T07:10:29.849Z,100561.41
2019-06-01T07:12:58.941Z,100563.50
2019-06-01T07:15:28.129Z,100561.98
2019-06-01T07:17:57.176Z,100562.44
2019-06-01T07:20:26.196Z,100561.66
2019-06-01T07:22:55.459Z,100565.41
2019-06-01T07:25:24.801Z,100556.69
2019-06-01T07:27:53.947Z,100562.59
2019-06-01T07:30:24.173Z,100575.83
2019-06-01T07:32:53.439Z,100575.67
2019-06-01T07:35:22.535Z,100565.28
2019-06-01T07:37:51.698Z,100563.36
2019-06-01T07:40:21.038Z,100567.94
2019-06-01T07:42:50.104Z,100562.48
2019-06-01T07:45:20.737Z,100567.55
2019-06-01T07:47:50.015Z,100572.94
2019-06-01T07:50:19.839Z,100573.88
2019-06-01T07:52:48.984Z,100568.84
2019-06-01T07:55:18.141Z,100564.64
2019-06-01T07:57:47.265Z,100567.55
2019-06-01T08:00:16.630Z,100571.31
2019-06-01T08:02:45.850Z,100572.09
2019-06-01T08:05:14.935Z,100567.64
2019-06-01T08:07:44.044Z,100565.07
2019-06-01T08:10:13.738Z,100562.27
2019-06-01T08:12:42.857Z,100559.03
2019-06-01T08:15:11.988Z,100559.02
2019-06-01T08:17:41.003Z,100551.92
2019-06-01T08:20:10.462Z,100547.89
2019-06-01T08:22:39.602Z,100555.83
2019-06-01T08:25:08.701Z,100555.89
2019-06-01T08:27:37.768Z,100550.16
2019-06-01T08:30:06.981Z,100544.64
2019-06-01T08:32:36.163Z,100560.52
2019-06-01T08:35:09.087Z,100559.73
2019-06-01T08:37:36.066Z,100554.80
2019-06-01T08:40:06.055Z,100544.77
2019-06-01T08:42:35.157Z,100549.02
2019-06-01T08:45:04.664Z,100549.48
2019-06-01T08:47:34.788Z,100550.28
2019-06-01T08:50:04.139Z,100549.77
2019-06-01T08:52:34.206Z,100557.30
2019-06-01T08:55:03.393Z,100544.59
2019-06-01T08:57:32.518Z,100542.24
2019-06-01T09:00:02.181Z,100547.53
2019-06-01T09:02:31.277Z,100532.17
2019-06-01T09:05:00.627Z,100542.58
2019-06-01T09:07:31.014Z,100536.69
2019-06-01T09:10:00.132Z,100535.06
2019-06-01T09:12:29.305Z,100535.30
2019-06-01T09:14:58.682Z,100532.80
2019-06-01T09:17:27.820Z,100535.27
2019-06-01T09:19:56.851Z,100532.03
2019-06-01T09:22:25.950Z,100529.84
2019-06-01T09:24:55.025Z,100534.58
2019-06-01T09:27:24.059Z,100531.30
2019-06-01T09:29:53.202Z,100525.06
2019-06-01T09:32:22.197Z,100534.58
2019-06-01T09:34:51.310Z,100538.19
2019-06-01T09:37:20.478Z,100533.53
2019-06-01T09:39:49.553Z,100539.36
2019-06-01T09:42:18.589Z,100530.94
2019-06-01T09:44:59.760Z,100530.43
2019-06-01T09:47:29.030Z,100531.72
2019-06-01T09:49:58.106Z,100522.95
2019-06-01T09:52:27.450Z,100524.10
2019-06-01T09:54:56.485Z,100527.88
2019-06-01T09:57:25.528Z,100524.64
2019-06-01T09:59:55.468Z,100522.80
2019-06-01T10:02:24.497Z,100519.49
2019-06-01T10:04:53.696Z,100517.59
2019-06-01T10:07:22.936Z,100519.86
2019-06-01T10:09:52.111Z,100519.61
2019-06-01T10:12:21.363Z,100513.30
2019-06-01T10:14:50.729Z,100511.37
2019-06-01T10:17:20.060Z,100510.77
2019-06-01T10:19:49.262Z,100514.14
2019-06-01T10:22:18.423Z,100514.70
2019-06-01T10:24:47.622Z,100513.98
2019-06-01T10:27:16.828Z,100513.58
2019-06-01T10:29:46.029Z,100510.67
2019-06-01T10:32:15.264Z,100506.20
2019-06-01T10:34:44.377Z,100504.93
2019-06-01T10:37:13.576Z,100506.07
2019-06-01T10:39:42.715Z,100506.62
2019-06-01T10:42:11.942Z,100508.52
2019-06-01T10:44:45.197Z,100508.89
2019-06-01T10:47:12.068Z,100497.36
2019-06-01T10:49:42.174Z,100496.29
2019-06-01T10:52:12.473Z,100490.05
2019-06-01T10:54:42.507Z,100491.95
2019-06-01T10:57:11.656Z,100484.83
2019-06-01T10:59:40.657Z,100489.61
2019-06-01T11:02:09.720Z,100478.73
2019-06-01T11:04:38.984Z,100487.83
2019-06-01T11:07:07.884Z,100486.97
2019-06-01T11:09:36.987Z,100482.92
2019-06-01T11:12:06.169Z,100482.80
2019-06-01T11:14:35.223Z,100473.25
2019-06-01T11:17:04.291Z,100476.36
2019-06-01T11:19:33.427Z,100466.70
2019-06-01T11:22:02.558Z,100469.45
2019-06-01T11:24:31.582Z,100470.73
2019-06-01T11:27:00.743Z,100470.14
2019-06-01T11:29:29.789Z,100462.66
2019-06-01T11:31:58.927Z,100455.22
2019-06-01T11:34:28.040Z,100451.95
2019-06-01T11:37:05.397Z,100458.08
2019-06-01T11:39:27.952Z,100466.22
2019-06-01T11:41:57.018Z,100456.85
2019-06-01T11:44:26.019Z,100448.84
2019-06-01T11:46:55.322Z,100440.27
2019-06-01T11:49:24.602Z,100440.13
2019-06-01T11:51:53.873Z,100434.38
2019-06-01T11:54:23.095Z,100435.02
2019-06-01T11:56:52.267Z,100426.87
2019-06-01T11:59:21.599Z,100423.80
2019-06-01T12:01:50.827Z,100426.32
2019-06-01T12:04:20.070Z,100420.30
2019-06-01T12:06:49.383Z,100423.28
2019-06-01T12:09:18.827Z,100425.30
2019-06-01T12:11:52.648Z,100423.14
2019-06-01T12:14:28.966Z,100417.95
2019-06-01T12:16:57.711Z,100423.20
2019-06-01T12:19:26.912Z,100412.58
2019-06-01T12:21:56.121Z,100416.03
2019-06-01T12:24:25.849Z,100410.52
2019-06-01T12:26:55.091Z,100410.38
2019-06-01T12:29:24.505Z,100408.58
2019-06-01T12:31:53.697Z,100402.73
2019-06-01T12:34:22.998Z,100404.40
2019-06-01T12:36:52.200Z,100407.53
2019-06-01T12:39:21.281Z,100408.64
2019-06-01T12:41:51.729Z,100399.68
2019-06-01T12:44:20.960Z,100391.58
2019-06-01T12:46:50.043Z,100385.22
2019-06-01T12:49:19.139Z,100379.69
2019-06-01T12:51:48.979Z,100379.07
2019-06-01T12:54:18.110Z,100374.66
2019-06-01T12:56:49.322Z,100381.80
2019-06-01T12:59:18.019Z,100372.68
2019-06-01T13:02:00.139Z,100376.30
2019-06-01T13:04:29.177Z,100371.77
2019-06-01T13:06:58.297Z,100359.34
2019-06-01T13:09:27.372Z,100358.64
2019-06-01T13:11:56.425Z,100358.99
2019-06-01T13:14:25.463Z,100354.67
2019-06-01T13:17:06.270Z,100358.39
2019-06-01T13:19:25.395Z,100359.05
2019-06-01T13:21:54.435Z,100356.48
2019-06-01T13:24:23.491Z,100350.02
2019-06-01T13:26:52.571Z,100349.25
2019-06-01T13:29:21.634Z,100347.47
2019-06-01T13:31:50.693Z,100350.48
2019-06-01T13:34:19.775Z,100345.20
2019-06-01T13:36:49.010Z,100340.34
2019-06-01T13:39:18.165Z,100340.66
2019-06-01T13:41:47.298Z,100330.68
2019-06-01T13:44:16.293Z,100329.06
2019-06-01T13:46:45.369Z,100334.36
2019-06-01T13:49:14.425Z,100326.28
2019-06-01T13:51:44.021Z,100325.70
2019-06-01T13:54:13.262Z,100320.80
2019-06-01T13:56:42.278Z,100318.44
2019-06-01T13:59:11.347Z,100314.06
2019-06-01T14:01:40.436Z,100308.20
2019-06-01T14:04:09.465Z,100306.50
2019-06-01T14:06:38.806Z,100308.59
2019-06-01T14:09:08.021Z,100307.16
2019-06-01T14:11:37.098Z,100311.52
2019-06-01T14:14:06.215Z,100314.02
2019-06-01T14:16:35.358Z,100311.25
2019-06-01T14:19:06.843Z,100310.55
2019-06-01T14:21:35.393Z,100301.49
2019-06-01T14:24:04.680Z,100298.27
2019-06-01T14:26:33.754Z,100301.63
2019-06-01T14:29:02.814Z,100295.80
2019-06-01T14:31:31.996Z,100290.94
2019-06-01T14:34:01.119Z,100295.88
2019-06-01T14:36:30.186Z,100295.13
2019-06-01T14:38:59.206Z,100292.97
2019-06-01T14:41:28.181Z,100292.20
2019-06-01T14:43:57.807Z,100291.70
2019-06-01T14:46:26.908Z,100289.83
2019-06-01T14:48:55.973Z,100281.19
2019-06-01T14:51:27.336Z,100277.94
2019-06-01T14:53:56.416Z,100280.48
2019-06-01T14:56:25.594Z,100275.73
2019-06-01T14:58:54.623Z,100275.02
2019-06-01T15:01:33.987Z,100275.42
2019-06-01T15:04:02.977Z,100276.50
2019-06-01T15:06:32.035Z,100281.22
2019-06-01T15:09:15.582Z,100272.33
2019-06-01T15:11:31.981Z,100244.03
2019-06-01T15:14:01.051Z,100268.83
2019-06-01T15:16:29.992Z,100271.49
2019-06-01T15:18:59.015Z,100266.80
2019-06-01T15:21:28.169Z,100266.03
2019-06-01T15:23:58.770Z,100259.03
2019-06-01T15:26:27.942Z,100261.73
2019-06-01T15:28:57.156Z,100265.80
2019-06-01T15:31:26.175Z,100264.95
2019-06-01T15:33:55.397Z,100258.32
2019-06-01T15:36:24.490Z,100261.50
2019-06-01T15:38:53.617Z,100256.97
2019-06-01T15:41:22.649Z,100255.61
2019-06-01T15:43:52.819Z,100248.21
2019-06-01T15:46:24.818Z,100239.86
2019-06-01T15:48:53.868Z,100237.08
2019-06-01T15:51:22.881Z,100240.91
2019-06-01T15:53:52.909Z,100237.48
2019-06-01T15:56:23.731Z,100235.06
2019-06-01T15:58:56.317Z,100230.66
2019-06-01T16:01:23.740Z,100227.55
2019-06-01T16:03:53.204Z,100227.77
2019-06-01T16:06:22.432Z,100225.30
2019-06-01T16:08:51.496Z,100224.23
2019-06-01T16:11:20.561Z,100220.09
2019-06-01T16:13:49.705Z,100220.72
2019-06-01T16:16:18.926Z,100216.22
2019-06-01T16:18:48.091Z,100213.52
2019-06-01T16:21:17.278Z,100213.80
2019-06-01T16:23:50.443Z,100212.21
2019-06-01T16:26:17.329Z,100210.27
2019-06-01T16:28:46.560Z,100205.98
2019-06-01T16:31:15.731Z,100204.54
2019-06-01T16:33:44.933Z,100205.06
2019-06-01T16:36:14.064Z,100204.59
2019-06-01T16:38:43.121Z,100206.21
2019-06-01T16:41:12.320Z,100201.84
2019-06-01T16:43:41.785Z,100201.23
2019-06-01T16:46:10.951Z,100205.20
2019-06-01T16:48:40.072Z,100202.59
2019-06-01T16:51:09.227Z,100201.52
2019-06-01T16:53:38.421Z,100205.68
2019-06-01T16:56:07.763Z,100197.48
2019-06-01T16:58:36.879Z,100198.60
2019-06-01T17:01:06.707Z,100190.02
2019-06-01T17:03:35.899Z,100191.16
2019-06-01T17:06:05.076Z,100190.41
2019-06-01T17:08:34.370Z,100186.38
2019-06-01T17:11:04.776Z,100185.06
2019-06-01T17:13:34.150Z,100187.52
2019-06-01T17:16:03.423Z,100183.86
2019-06-01T17:18:32.651Z,100185.95
2019-06-01T17:21:01.884Z,100191.50
2019-06-01T17:23:33.125Z,100182.67
2019-06-01T17:26:02.123Z,100184.62
2019-06-01T17:28:31.391Z,100187.47
2019-06-01T17:31:00.633Z,100182.19
2019-06-01T17:33:29.992Z,100189.56
2019-06-01T17:35:59.157Z,100180.20
2019-06-01T17:38:28.477Z,100181.45
2019-06-01T17:40:58.033Z,100176.44
2019-06-01T17:43:28.247Z,100178.27
2019-06-01T17:46:00.754Z,100176.31
2019-06-01T17:48:33.465Z,100173.25
2019-06-01T17:51:04.999Z,100173.88
2019-06-01T17:53:34.371Z,100173.78
2019-06-01T17:56:17.206Z,100173.40
2019-06-01T17:58:46.779Z,100175.01
2019-06-01T18:01:16.138Z,100171.70
2019-06-01T18:03:45.458Z,100172.44
2019-06-01T18:06:14.559Z,100172.45
2019-06-01T18:08:43.901Z,100175.67
2019-06-01T18:11:14.026Z,100165.84
2019-06-01T18:13:44.857Z,100169.39
2019-06-01T18:16:14.997Z,100167.06
2019-06-01T18:18:44.517Z,100167.44
2019-06-01T18:21:18.561Z,100162.16
2019-06-01T18:24:21.585Z,100163.63
2019-06-01T22:23:33.157Z,100124.37
2019-06-01T22:26:02.287Z,100125.38
2019-06-01T22:28:31.484Z,100122.50
2019-06-01T22:31:00.666Z,100116.84
2019-06-01T22:33:29.867Z,100114.73
2019-06-01T22:35:58.990Z,100112.52
2019-06-01T22:38:28.099Z,100106.02
2019-06-01T22:40:57.291Z,100109.77
2019-06-01T22:43:42.211Z,100113.39
2019-06-01T22:45:57.282Z,100115.28
2019-06-01T22:48:26.658Z,100110.11
2019-06-01T22:50:55.946Z,100109.79
2019-06-01T22:53:26.220Z,100105.08
2019-06-01T22:55:55.474Z,100109.70
2019-06-01T22:58:25.279Z,100101.45
2019-06-01T23:00:54.688Z,100107.79
2019-06-01T23:03:23.817Z,100102.23
2019-06-01T23:05:52.934Z,100106.76
2019-06-01T23:08:24.031Z,100105.13
2019-06-01T23:10:53.030Z,100104.42
2019-06-01T23:13:22.279Z,100097.89
2019-06-01T23:15:51.480Z,100102.93
2019-06-01T23:18:21.688Z,100103.61
2019-06-01T23:20:50.889Z,100099.39
2019-06-01T23:23:20.059Z,100100.46
2019-06-01T23:25:49.315Z,100102.73
2019-06-01T23:28:18.474Z,100096.30
2019-06-01T23:30:47.609Z,100095.91
2019-06-01T23:33:16.879Z,100092.92
2019-06-01T23:35:46.082Z,100094.41
2019-06-01T23:38:15.385Z,100087.98
2019-06-01T23:40:44.750Z,100089.98
2019-06-01T23:43:14.026Z,100082.16
2019-06-01T23:45:43.128Z,100081.44
2019-06-01T23:48:13.356Z,100075.00
2019-06-01T23:50:42.441Z,100077.34
2019-06-01T23:53:13.933Z,100078.41
2019-06-01T23:55:42.374Z,100071.02
2019-06-01T23:58:11.530Z,100064.52
